createdAt,value
2022-09-04T00:01:40.068Z,76.36
2022-09-04T00:04:27.001Z,76.39
2022-09-04T00:07:08.723Z,75.37
2022-09-04T00:09:43.690Z,74.68
2022-09-04T00:12:11.806Z,75.01
2022-09-04T00:14:46.415Z,75.81
2022-09-04T00:17:21.263Z,78.08
2022-09-04T00:19:56.398Z,78.92
2022-09-04T00:22:35.364Z,79.24
2022-09-04T00:25:12.106Z,79.57
2022-09-04T00:27:45.191Z,80.58
2022-09-04T00:30:19.872Z,81.54
2022-09-04T00:32:55.920Z,82.08
2022-09-04T00:35:31.363Z,81.26
2022-09-04T00:38:04.437Z,81.10
2022-09-04T00:40:35.811Z,80.48
2022-09-04T00:43:39.692Z,79.97
2022-09-04T00:46:29.810Z,80.17
2022-09-04T00:49:30.075Z,80.00
2022-09-04T00:52:12.175Z,80.30
2022-09-04T00:54:55.282Z,80.30
2022-09-04T00:58:12.657Z,80.64
2022-09-04T01:00:40.719Z,80.72
2022-09-04T01:03:39.320Z,80.92
2022-09-04T01:06:20.155Z,80.85
2022-09-04T01:09:08.260Z,80.83
2022-09-04T01:11:43.259Z,80.21
2022-09-04T01:14:19.902Z,80.49
2022-09-04T01:16:54.251Z,80.87
2022-09-04T01:19:44.291Z,82.10
2022-09-04T01:22:56.901Z,82.11
2022-09-04T01:25:35.826Z,82.45
2022-09-04T01:28:09.392Z,81.36
2022-09-04T01:30:47.159Z,81.28
2022-09-04T01:33:24.273Z,81.00
2022-09-04T01:36:02.146Z,81.41
2022-09-04T01:38:38.316Z,81.67
2022-09-04T01:41:16.664Z,81.90
2022-09-04T01:43:46.019Z,81.95
2022-09-04T01:46:33.700Z,81.85
2022-09-04T01:49:08.130Z,82.33
2022-09-04T01:51:41.638Z,82.45
2022-09-04T01:54:22.070Z,81.90
2022-09-04T01:57:00.786Z,81.75
2022-09-04T01:59:35.735Z,81.81
2022-09-04T02:02:16.228Z,82.36
2022-09-04T02:04:54.620Z,81.91
2022-09-04T02:07:31.720Z,82.22
2022-09-04T02:10:09.119Z,82.52
2022-09-04T02:12:43.201Z,82.10
2022-09-04T02:15:23.688Z,82.41
2022-09-04T02:18:02.906Z,82.65
2022-09-04T02:20:32.393Z,82.88
2022-09-04T02:23:11.811Z,83.00
2022-09-04T02:25:46.303Z,82.80
2022-09-04T02:28:30.859Z,82.17
2022-09-04T02:31:06.789Z,82.10
2022-09-04T02:33:42.998Z,82.05
2022-09-04T02:36:19.733Z,82.17
2022-09-04T02:38:57.178Z,81.82
2022-09-04T02:41:34.667Z,81.45
2022-09-04T02:44:19.883Z,81.17
2022-09-04T02:47:02.548Z,80.99
2022-09-04T02:49:41.133Z,81.07
2022-09-04T02:52:25.780Z,81.36
2022-09-04T02:55:12.384Z,81.59
2022-09-04T02:57:55.108Z,80.90
2022-09-04T03:00:26.025Z,81.55
2022-09-04T03:03:01.780Z,81.51
2022-09-04T03:05:34.472Z,81.51
2022-09-04T03:08:10.228Z,81.63
2022-09-04T03:10:45.260Z,81.57
2022-09-04T03:13:23.320Z,81.90
2022-09-04T03:15:55.719Z,81.60
2022-09-04T03:18:31.620Z,81.51
2022-09-04T03:21:06.359Z,81.99
2022-09-04T03:23:44.265Z,81.97
2022-09-04T03:26:20.862Z,82.11
2022-09-04T03:29:01.050Z,81.99
2022-09-04T03:31:34.319Z,82.06
2022-09-04T03:34:27.348Z,82.95
2022-09-04T03:37:20.680Z,83.22
2022-09-04T03:40:00.768Z,83.43
2022-09-04T03:42:39.931Z,83.84
2022-09-04T03:45:21.348Z,84.08
2022-09-04T03:48:05.747Z,84.24
2022-09-04T03:50:45.204Z,84.81
2022-09-04T03:53:21.864Z,85.40
2022-09-04T03:56:25.446Z,85.62
2022-09-04T03:59:03.126Z,85.36
2022-09-04T04:01:43.090Z,84.98
2022-09-04T04:04:52.219Z,85.40
2022-09-04T04:07:35.532Z,85.57
2022-09-04T04:10:19.612Z,85.87
2022-09-04T04:13:12.400Z,85.49
2022-09-04T04:15:52.349Z,84.66
2022-09-04T04:18:44.501Z,85.26
2022-09-04T04:21:23.617Z,84.58
2022-09-04T04:24:22.827Z,84.89
2022-09-04T04:27:07.820Z,85.93
2022-09-04T04:30:01.794Z,85.98
2022-09-04T04:32:44.126Z,86.11
2022-09-04T04:35:22.382Z,85.77
2022-09-04T04:38:01.481Z,85.70
2022-09-04T04:40:45.641Z,85.61
2022-09-04T04:43:21.216Z,85.16
2022-09-04T04:45:55.089Z,85.45
2022-09-04T04:49:05.362Z,85.60
2022-09-04T04:51:53.429Z,86.05
2022-09-04T04:54:38.883Z,85.33
2022-09-04T04:57:19.299Z,85.62
2022-09-04T04:59:55.851Z,85.63
2022-09-04T05:02:29.989Z,86.01
2022-09-04T05:05:03.665Z,86.17
2022-09-04T05:07:39.054Z,86.54
2022-09-04T05:10:17.739Z,86.59
2022-09-04T05:13:00.297Z,86.98
2022-09-04T05:15:43.802Z,86.66
2022-09-04T05:18:27.087Z,86.56
2022-09-04T05:21:00.924Z,86.37
2022-09-04T05:23:40.730Z,86.26
2022-09-04T05:26:14.519Z,85.88
2022-09-04T05:28:51.769Z,85.95
2022-09-04T05:31:29.906Z,85.38
2022-09-04T05:34:05.847Z,85.52
2022-09-04T05:36:46.027Z,84.96
2022-09-04T05:39:24.098Z,84.92
2022-09-04T05:42:06.631Z,84.47
2022-09-04T05:44:53.312Z,84.47
2022-09-04T05:47:34.363Z,84.45
2022-09-04T05:50:29.408Z,84.22
2022-09-04T05:53:15.922Z,84.33
2022-09-04T05:55:59.863Z,84.41
2022-09-04T05:58:46.291Z,85.27
2022-09-04T06:01:33.162Z,84.51
2022-09-04T06:04:22.805Z,84.86
2022-09-04T06:07:02.277Z,85.23
2022-09-04T06:09:50.876Z,85.36
2022-09-04T06:12:36.665Z,85.30
2022-09-04T06:15:15.139Z,85.05
2022-09-04T06:18:05.217Z,84.68
2022-09-04T06:20:45.533Z,84.69
2022-09-04T06:23:37.394Z,84.31
2022-09-04T06:26:28.844Z,84.85
2022-09-04T06:29:17.297Z,85.33
2022-09-04T06:32:20.618Z,85.59
2022-09-04T06:35:28.497Z,85.59
2022-09-04T06:38:13.935Z,84.32
2022-09-04T06:40:56.660Z,83.67
2022-09-04T06:43:34.746Z,82.84
2022-09-04T06:46:20.315Z,82.21
2022-09-04T06:49:00.319Z,81.31
2022-09-04T06:51:44.133Z,81.01
2022-09-04T06:54:24.027Z,79.95
2022-09-04T06:57:10.571Z,79.61
2022-09-04T07:00:03.879Z,79.01
2022-09-04T07:02:55.580Z,79.02
2022-09-04T07:05:31.046Z,78.77
2022-09-04T07:08:09.178Z,77.77
2022-09-04T07:10:41.215Z,78.27
2022-09-04T07:13:37.576Z,77.00
2022-09-04T07:16:31.291Z,77.90
2022-09-04T07:19:22.101Z,76.54
2022-09-04T07:22:03.983Z,76.58
2022-09-04T07:24:51.159Z,76.71
2022-09-04T07:27:36.398Z,77.91
2022-09-04T07:30:07.590Z,76.88
2022-09-04T07:32:39.328Z,76.94
2022-09-04T07:35:14.631Z,76.84
2022-09-04T07:37:52.621Z,75.90
2022-09-04T07:40:27.915Z,76.71
2022-09-04T07:43:06.956Z,75.71
2022-09-04T07:45:39.505Z,74.76
2022-09-04T07:48:19.651Z,74.76
2022-09-04T07:51:04.675Z,76.08
2022-09-04T07:53:50.633Z,75.82
2022-09-04T07:56:30.180Z,74.87
2022-09-04T07:59:14.256Z,74.76
2022-09-04T08:01:53.911Z,75.45
2022-09-04T08:04:40.517Z,75.45
2022-09-04T08:07:16.986Z,75.63
2022-09-04T08:10:18.489Z,74.83
2022-09-04T08:13:09.830Z,74.29
2022-09-04T08:15:43.982Z,74.37
2022-09-04T08:18:25.892Z,73.26
2022-09-04T08:21:10.136Z,74.33
2022-09-04T08:24:19.648Z,74.55
2022-09-04T08:27:06.063Z,73.23
2022-09-04T08:29:49.428Z,72.89
2022-09-04T08:32:37.174Z,72.83
2022-09-04T08:35:23.764Z,73.12
2022-09-04T08:38:08.468Z,73.22
2022-09-04T08:41:01.862Z,72.62
2022-09-04T08:43:39.674Z,73.82
2022-09-04T08:46:55.283Z,74.34
2022-09-04T08:50:14.781Z,73.27
2022-09-04T08:53:20.858Z,72.99
2022-09-04T08:55:59.896Z,72.66
2022-09-04T08:59:09.474Z,72.58
2022-09-04T09:02:30.132Z,72.24
2022-09-04T09:05:33.558Z,71.08
2022-09-04T09:08:31.413Z,71.00
2022-09-04T09:11:24.661Z,70.22
2022-09-04T09:14:25.671Z,70.39
2022-09-04T09:17:05.960Z,70.72
2022-09-04T09:19:45.602Z,70.10
2022-09-04T09:22:37.550Z,70.18
2022-09-04T09:25:20.888Z,70.07
2022-09-04T09:28:20.107Z,69.91
2022-09-04T09:31:34.556Z,69.11
2022-09-04T09:34:41.540Z,69.69
2022-09-04T09:37:35.219Z,68.13
2022-09-04T09:40:23.441Z,68.52
2022-09-04T09:43:19.069Z,67.19
2022-09-04T09:46:12.235Z,67.63
2022-09-04T09:49:15.112Z,67.38
2022-09-04T09:52:03.615Z,67.24
2022-09-04T09:55:09.035Z,68.38
2022-09-04T09:58:03.453Z,67.98
2022-09-04T10:00:39.771Z,68.07
2022-09-04T10:03:56.704Z,66.67
2022-09-04T10:07:00.349Z,68.01
2022-09-04T10:10:10.893Z,67.31
2022-09-04T10:13:09.957Z,67.18
2022-09-04T10:16:08.395Z,66.95
2022-09-04T10:18:57.203Z,66.51
2022-09-04T10:21:52.021Z,64.81
2022-09-04T10:25:04.056Z,65.06
2022-09-04T10:28:03.133Z,64.09
2022-09-04T10:30:50.163Z,64.22
2022-09-04T10:33:31.987Z,65.33
2022-09-04T10:36:19.739Z,66.28
2022-09-04T10:39:23.016Z,65.44
2022-09-04T10:42:05.560Z,64.80
2022-09-04T10:45:12.007Z,63.56
2022-09-04T10:48:12.875Z,62.33
2022-09-04T10:51:02.061Z,62.99
2022-09-04T10:54:14.182Z,62.09
2022-09-04T10:56:50.249Z,62.87
2022-09-04T10:59:44.772Z,61.57
2022-09-04T11:02:26.521Z,63.03
2022-09-04T11:05:18.965Z,61.82
2022-09-04T11:08:13.690Z,63.43
2022-09-04T11:11:03.895Z,61.56
2022-09-04T11:13:58.138Z,60.86
2022-09-04T11:16:57.403Z,59.82
2022-09-04T11:19:58.103Z,61.36
2022-09-04T11:23:01.170Z,63.02
2022-09-04T11:26:05.834Z,60.31
2022-09-04T11:29:10.997Z,59.66
2022-09-04T11:32:00.023Z,59.98
2022-09-04T11:35:00.824Z,59.69
2022-09-04T11:38:18.599Z,60.29
2022-09-04T11:41:28.307Z,58.42
2022-09-04T11:44:29.859Z,59.15
2022-09-04T11:47:31.481Z,59.28
2022-09-04T11:50:16.613Z,58.00
2022-09-04T11:53:08.131Z,56.93
2022-09-04T11:56:03.985Z,57.05
2022-09-04T11:58:52.177Z,56.16
2022-09-04T12:01:36.640Z,56.01
2022-09-04T12:04:30.637Z,55.43
2022-09-04T12:07:14.135Z,55.76
2022-09-04T12:10:02.926Z,54.20
2022-09-04T12:13:14.546Z,56.11
2022-09-04T12:16:10.811Z,55.10
2022-09-04T12:19:27.467Z,53.97
2022-09-04T12:22:50.286Z,54.81
2022-09-04T12:25:41.220Z,54.74
2022-09-04T12:28:48.938Z,54.99
2022-09-04T12:31:40.345Z,52.63
2022-09-04T12:34:27.134Z,54.32
2022-09-04T12:37:27.560Z,52.52
2022-09-04T12:40:31.758Z,51.47
2022-09-04T12:43:13.136Z,52.03
2022-09-04T12:45:49.863Z,51.08
2022-09-04T12:48:32.915Z,50.77
2022-09-04T12:51:12.107Z,51.17
2022-09-04T12:54:04.307Z,50.44
2022-09-04T12:56:49.082Z,51.29
2022-09-04T12:59:35.824Z,49.38
2022-09-04T13:02:14.131Z,49.38
2022-09-04T13:04:57.542Z,49.24
2022-09-04T13:07:44.020Z,49.01
2022-09-04T13:10:23.892Z,48.78
2022-09-04T13:13:04.056Z,49.69
2022-09-04T13:15:49.379Z,48.68
2022-09-04T13:18:43.299Z,49.54
2022-09-04T13:21:27.431Z,47.11
2022-09-04T13:24:16.068Z,47.99
2022-09-04T13:27:02.564Z,47.25
2022-09-04T13:29:44.561Z,46.54
2022-09-04T13:32:41.890Z,47.75
2022-09-04T13:35:19.520Z,48.21
2022-09-04T13:38:11.656Z,48.46
2022-09-04T13:41:09.645Z,45.29
2022-09-04T13:44:01.745Z,47.35
2022-09-04T13:46:33.979Z,47.15
2022-09-04T13:49:06.393Z,47.16
2022-09-04T13:51:39.926Z,47.31
2022-09-04T13:54:13.729Z,47.07
2022-09-04T13:56:47.055Z,46.98
2022-09-04T13:59:18.515Z,47.34
2022-09-04T14:01:52.543Z,47.27
2022-09-04T14:04:26.602Z,46.85
2022-09-04T14:07:02.471Z,47.07
2022-09-04T14:09:36.102Z,46.26
2022-09-04T14:12:23.140Z,45.45
2022-09-04T14:15:31.444Z,45.26
2022-09-04T14:18:13.520Z,46.40
2022-09-04T14:21:00.955Z,46.68
2022-09-04T14:23:42.915Z,44.28
2022-09-04T14:26:24.536Z,44.80
2022-09-04T14:28:59.394Z,45.64
2022-09-04T14:31:35.343Z,42.97
2022-09-04T14:34:17.478Z,43.06
2022-09-04T14:36:56.591Z,43.27
2022-09-04T14:39:31.509Z,43.33
2022-09-04T14:42:22.236Z,41.90
2022-09-04T14:45:01.701Z,43.40
2022-09-04T14:47:40.221Z,43.44
2022-09-04T14:50:09.853Z,42.95
2022-09-04T14:52:42.570Z,42.38
2022-09-04T14:55:16.981Z,43.24
2022-09-04T14:57:51.346Z,41.81
2022-09-04T15:00:20.902Z,43.47
2022-09-04T15:02:58.094Z,43.38
2022-09-04T15:05:31.875Z,42.57
2022-09-04T15:08:02.839Z,41.94
2022-09-04T15:10:47.603Z,42.28
2022-09-04T15:13:48.318Z,42.20
2022-09-04T15:16:24.978Z,42.18
2022-09-04T15:19:05.055Z,41.87
2022-09-04T15:21:40.628Z,41.82
2022-09-04T15:24:18.246Z,41.92
2022-09-04T15:26:55.748Z,42.75
2022-09-04T15:29:32.133Z,41.47
2022-09-04T15:32:01.846Z,41.78
2022-09-04T15:34:31.378Z,40.76
2022-09-04T15:37:12.217Z,42.34
2022-09-04T15:39:50.461Z,41.62
2022-09-04T15:42:36.144Z,41.60
2022-09-04T15:45:15.549Z,39.84
2022-09-04T15:48:06.491Z,41.61
2022-09-04T15:50:40.379Z,41.93
2022-09-04T15:53:26.414Z,39.92
2022-09-04T15:56:06.319Z,40.06
2022-09-04T15:58:41.547Z,40.05
2022-09-04T16:01:16.985Z,40.89
2022-09-04T16:04:00.169Z,39.51
2022-09-04T16:06:32.815Z,39.91
2022-09-04T16:09:06.683Z,39.28
2022-09-04T16:11:39.128Z,40.32
2022-09-04T16:14:12.749Z,40.21
2022-09-04T16:16:48.604Z,40.56
2022-09-04T16:19:25.859Z,40.96
2022-09-04T16:22:05.838Z,40.95
2022-09-04T16:24:40.008Z,41.13
2022-09-04T16:27:12.385Z,41.07
2022-09-04T16:29:46.233Z,41.39
2022-09-04T16:32:22.210Z,41.94
2022-09-04T16:34:55.150Z,41.73
2022-09-04T16:37:28.665Z,41.47
2022-09-04T16:40:04.635Z,42.41
2022-09-04T16:42:40.293Z,42.20
2022-09-04T16:45:15.451Z,41.53
2022-09-04T16:47:51.161Z,41.35
2022-09-04T16:50:25.933Z,42.16
2022-09-04T16:53:13.353Z,42.16
2022-09-04T16:55:59.317Z,42.33
2022-09-04T16:58:40.271Z,41.80
2022-09-04T17:01:16.746Z,42.26
2022-09-04T17:04:13.422Z,44.28
2022-09-04T17:06:56.379Z,43.96
2022-09-04T17:09:32.124Z,43.62
2022-09-04T17:12:17.766Z,44.06
2022-09-04T17:14:51.967Z,44.05
2022-09-04T17:17:29.990Z,44.02
2022-09-04T17:20:07.349Z,45.41
2022-09-04T17:28:19.027Z,43.44
2022-09-04T17:29:09.934Z,45.42
2022-09-04T17:29:18.800Z,44.46
2022-09-04T17:31:45.883Z,46.33
2022-09-04T17:40:31.897Z,47.44
2022-09-04T17:40:41.634Z,48.00
2022-09-04T17:40:53.764Z,47.85
2022-09-04T17:43:24.326Z,48.78
2022-09-04T17:46:07.692Z,48.48
2022-09-04T17:48:42.826Z,49.06
2022-09-04T17:51:18.856Z,49.73
2022-09-04T17:53:52.820Z,49.97
2022-09-04T17:56:25.898Z,50.35
2022-09-04T17:59:02.067Z,50.61
2022-09-04T18:01:36.600Z,50.93
2022-09-04T18:04:27.241Z,50.98
2022-09-04T18:07:39.591Z,51.44
2022-09-04T18:10:04.064Z,51.50
2022-09-04T18:12:38.827Z,51.29
2022-09-04T18:15:33.951Z,51.85
2022-09-04T18:18:11.905Z,52.18
2022-09-04T18:20:45.253Z,53.15
2022-09-04T18:23:23.160Z,54.08
2022-09-04T18:25:57.498Z,53.58
2022-09-04T18:28:33.708Z,53.97
2022-09-04T18:37:09.265Z,54.11
2022-09-04T18:37:18.792Z,54.80
2022-09-04T18:37:24.172Z,55.30
2022-09-04T18:40:03.822Z,55.82
2022-09-04T18:49:15.967Z,56.87
2022-09-04T18:50:31.399Z,56.77
2022-09-04T18:50:32.525Z,57.34
2022-09-04T18:51:30.531Z,57.18
2022-09-04T18:54:04.009Z,56.81
2022-09-04T18:56:37.797Z,57.02
2022-09-04T18:59:11.713Z,57.66
2022-09-04T19:01:44.267Z,59.05
2022-09-04T19:04:38.945Z,60.15
2022-09-04T19:07:11.700Z,58.98
2022-09-04T19:10:09.450Z,59.82
2022-09-04T19:12:47.978Z,59.71
2022-09-04T19:15:36.903Z,60.51
2022-09-04T19:18:15.126Z,59.75
2022-09-04T19:20:48.310Z,60.85
2022-09-04T19:23:26.604Z,60.45
2022-09-04T19:25:57.545Z,60.30
2022-09-04T19:28:35.680Z,60.11
2022-09-04T19:31:16.464Z,60.29
2022-09-04T19:33:50.495Z,60.93
2022-09-04T19:36:24.763Z,61.18
2022-09-04T19:44:44.513Z,60.90
2022-09-04T19:46:15.503Z,61.91
2022-09-04T19:46:16.322Z,61.36
2022-09-04T19:47:57.946Z,62.33
2022-09-04T19:53:31.358Z,62.50
2022-09-04T19:53:41.190Z,62.14
2022-09-04T19:56:31.373Z,64.16
2022-09-04T19:59:06.660Z,65.62
2022-09-04T20:01:45.753Z,65.72
2022-09-04T20:04:26.549Z,66.41
2022-09-04T20:06:59.543Z,66.15
2022-09-04T20:09:34.271Z,65.58
2022-09-04T20:12:11.879Z,65.12
2022-09-04T20:14:47.033Z,64.88
2022-09-04T20:17:30.536Z,65.16
2022-09-04T20:20:04.383Z,64.90
2022-09-04T20:22:37.741Z,64.70
2022-09-04T20:25:30.449Z,65.30
2022-09-04T20:28:08.750Z,65.13
2022-09-04T20:30:38.902Z,65.02
2022-09-04T20:33:12.544Z,64.88
2022-09-04T20:35:46.755Z,64.76
2022-09-04T20:38:24.251Z,64.61
2022-09-04T20:40:57.157Z,64.70
2022-09-04T20:43:32.256Z,64.67
2022-09-04T20:51:29.328Z,64.39
2022-09-04T20:52:50.064Z,64.80
2022-09-04T20:53:05.702Z,64.80
2022-09-04T20:55:12.666Z,64.78
2022-09-04T21:02:47.291Z,64.54
2022-09-04T21:03:14.705Z,64.76
2022-09-04T21:04:05.564Z,65.54
2022-09-04T21:06:39.804Z,65.20
2022-09-04T21:09:18.592Z,64.98
2022-09-04T21:11:51.024Z,64.62
2022-09-04T21:14:27.335Z,64.68
2022-09-04T21:17:36.118Z,65.43
2022-09-04T21:20:59.317Z,65.45
2022-09-04T21:24:03.052Z,65.67
2022-09-04T21:26:50.764Z,65.86
2022-09-04T21:29:40.610Z,65.91
2022-09-04T21:32:29.941Z,65.71
2022-09-04T21:35:07.989Z,65.38
2022-09-04T21:37:46.637Z,65.48
2022-09-04T21:40:51.034Z,66.16
2022-09-04T21:43:58.920Z,66.42
2022-09-04T21:46:43.736Z,66.84
2022-09-04T21:49:44.756Z,66.78
2022-09-04T21:52:33.099Z,66.62
2022-09-04T21:59:04.666Z,66.69
2022-09-04T22:02:42.419Z,66.84
2022-09-04T22:02:43.254Z,66.29
2022-09-04T22:04:38.587Z,66.78
2022-09-04T22:10:08.429Z,66.38
2022-09-04T22:13:30.398Z,66.54
2022-09-04T22:13:33.323Z,66.80
2022-09-04T22:16:25.988Z,66.36
2022-09-04T22:19:16.548Z,66.42
2022-09-04T22:22:03.867Z,67.34
2022-09-04T22:25:01.812Z,66.11
2022-09-04T22:28:08.293Z,65.87
2022-09-04T22:31:04.556Z,66.03
2022-09-04T22:34:16.923Z,65.88
2022-09-04T22:37:15.852Z,66.40
2022-09-04T22:40:04.705Z,66.83
2022-09-04T22:42:49.104Z,66.66
2022-09-04T22:45:49.769Z,66.67
2022-09-04T22:49:11.775Z,66.55
2022-09-04T22:52:00.990Z,67.41
2022-09-04T22:54:55.563Z,67.15
2022-09-04T22:57:31.597Z,67.73
2022-09-04T23:00:11.931Z,67.74
2022-09-04T23:03:09.111Z,67.38
2022-09-04T23:08:53.545Z,67.86
2022-09-04T23:13:59.884Z,67.79
2022-09-04T23:13:59.885Z,67.66
2022-09-04T23:16:27.750Z,67.85
2022-09-04T23:26:31.312Z,68.16
2022-09-04T23:26:39.094Z,67.67
2022-09-04T23:26:43.776Z,68.04
2022-09-04T23:28:40.428Z,68.03
2022-09-04T23:31:46.229Z,67.82
2022-09-04T23:34:39.013Z,68.27
2022-09-04T23:37:33.071Z,67.56
2022-09-04T23:40:28.479Z,67.08
2022-09-04T23:43:16.469Z,67.42
2022-09-04T23:46:32.397Z,67.57
2022-09-04T23:49:32.140Z,72.97
2022-09-04T23:52:09.019Z,77.29
2022-09-04T23:54:59.489Z,81.80
2022-09-04T23:57:30.048Z,80.25
